Time;durP1;ratioP1;P1;durP2;ratioP2;P2;SDS_P1;SDS_P2;PMS_P1;PMS_P2;Temp;Humidity;BMP_temperature;BMP_pressure;BME280_temperature;BME280_humidity;BME280_pressure;Samples;Min_cycle;Max_cycle;Signal;HPM_P1;HPM_P2
2022/12/18 17:28:24;;;;;;;10.95;6.63;;;18.50;31.80;;;;;;5106272;27;20479;-58
2022/12/18 17:30:52;;;;;;;15.52;6.75;;;18.80;32.70;;;;;;5105061;28;20111;-54
2022/12/18 17:33:18;;;;;;;15.35;5.93;;;19.20;32.20;;;;;;5105755;28;20075;-58
2022/12/18 17:35:45;;;;;;;10.13;5.60;;;19.40;32.00;;;;;;5105884;28;20091;-55
2022/12/18 17:38:12;;;;;;;14.60;6.50;;;19.60;31.40;;;;;;5105225;28;20117;-59
2022/12/18 17:40:39;;;;;;;15.35;6.47;;;19.80;29.80;;;;;;5105590;28;20094;-57
2022/12/18 17:43:06;;;;;;;18.05;6.80;;;20.10;29.30;;;;;;5104842;28;20095;-58
2022/12/18 17:45:37;;;;;;;20.92;8.40;;;20.40;29.00;;;;;;5105275;28;20174;-59
2022/12/18 17:48:04;;;;;;;19.45;8.52;;;20.40;29.80;;;;;;5104995;28;20091;-60
2022/12/18 17:50:33;;;;;;;20.02;7.47;;;21.10;29.10;;;;;;5099583;28;20138;-58
2022/12/18 17:53:00;;;;;;;29.48;10.68;;;21.40;28.50;;;;;;5104073;28;20102;-59
2022/12/18 17:55:27;;;;;;;22.92;10.32;;;21.60;29.00;;;;;;5105445;28;20091;-57
2022/12/18 17:57:54;;;;;;;28.65;10.95;;;21.90;28.00;;;;;;5105977;28;20114;-57
2022/12/18 18:00:20;;;;;;;33.25;12.07;;;22.20;28.00;;;;;;5105964;27;20532;-53
2022/12/18 18:02:47;;;;;;;31.90;11.05;;;22.10;28.20;;;;;;5105881;28;20589;-54
2022/12/18 18:05:13;;;;;;;28.60;10.65;;;22.40;28.10;;;;;;5105641;28;20067;-59
2022/12/18 18:07:40;;;;;;;27.60;9.02;;;22.50;28.00;;;;;;5104975;28;20091;-56
2022/12/18 18:10:07;;;;;;;36.15;10.35;;;22.80;27.80;;;;;;5113073;28;20080;-55
2022/12/18 18:15:18;;;;;;;21.42;9.55;;;23.50;27.00;;;;;;5107544;28;20097;-58
2022/12/18 18:17:45;;;;;;;21.65;8.82;;;23.80;26.10;;;;;;5104709;28;20431;-59
2022/12/18 18:20:12;;;;;;;28.15;8.55;;;23.30;26.30;;;;;;5102053;28;20059;-54
2022/12/18 18:22:39;;;;;;;24.58;9.13;;;23.30;26.00;;;;;;5104541;28;20063;-59
2022/12/18 18:25:05;;;;;;;24.73;9.32;;;23.40;26.00;;;;;;5103910;28;20063;-60
2022/12/18 18:27:32;;;;;;;20.48;9.73;;;23.10;25.70;;;;;;5105577;28;20782;-59
2022/12/18 18:29:58;;;;;;;21.25;8.75;;;23.10;25.90;;;;;;5103590;28;20098;-61
2022/12/18 18:32:24;;;;;;;25.05;9.10;;;22.60;26.80;;;;;;5103925;28;20071;-58
2022/12/18 18:34:51;;;;;;;21.83;8.82;;;23.30;26.60;;;;;;5104823;28;20067;-57
2022/12/18 18:37:17;;;;;;;28.50;9.60;;;22.80;26.50;;;;;;5103809;28;20103;-58
2022/12/18 18:39:44;;;;;;;21.08;8.68;;;23.60;26.00;;;;;;5088044;28;20075;-61
2022/12/18 18:42:10;;;;;;;23.27;8.65;;;23.20;26.70;;;;;;5093366;28;20099;-58
2022/12/18 18:44:37;;;;;;;27.33;8.65;;;23.70;26.30;;;;;;5089910;28;20075;-54
2022/12/18 18:47:03;;;;;;;34.63;9.68;;;23.20;26.20;;;;;;5090821;28;20567;-59
2022/12/18 18:49:30;;;;;;;36.17;10.35;;;22.90;25.30;;;;;;5090847;28;20067;-59
2022/12/18 18:51:58;;;;;;;31.55;8.70;;;22.60;25.80;;;;;;5086089;28;20040;-58
2022/12/18 18:54:25;;;;;;;26.80;9.23;;;23.50;25.80;;;;;;5088699;28;20062;-59
2022/12/18 18:56:51;;;;;;;25.83;9.95;;;24.10;25.40;;;;;;5089116;28;20057;-57
2022/12/18 18:59:18;;;;;;;23.45;9.77;;;24.10;24.60;;;;;;5090768;28;20519;-58
2022/12/18 19:01:44;;;;;;;24.73;10.38;;;24.80;24.70;;;;;;5089683;28;20097;-57
2022/12/18 19:04:11;;;;;;;30.88;10.82;;;24.00;43.50;;;;;;5091332;28;20162;-55
2022/12/18 19:06:37;;;;;;;32.67;11.25;;;24.20;25.20;;;;;;5089697;28;20078;-58
2022/12/18 19:09:05;;;;;;;25.55;9.57;;;23.40;25.70;;;;;;5092408;28;20101;-56
2022/12/18 19:14:17;;;;;;;19.88;8.38;;;23.70;25.90;;;;;;5087617;28;20101;-59
2022/12/18 19:16:44;;;;;;;20.98;9.27;;;23.40;25.80;;;;;;5090703;28;20083;-62
2022/12/18 19:19:11;;;;;;;22.70;10.43;;;22.70;45.00;;;;;;5088731;28;20071;-57
2022/12/18 19:21:37;;;;;;;24.02;10.85;;;22.60;26.00;;;;;;5089115;28;20458;-59
2022/12/18 19:24:04;;;;;;;26.35;8.65;;;22.30;27.40;;;;;;5088773;28;20188;-56
2022/12/18 19:26:30;;;;;;;19.25;10.30;;;22.30;27.00;;;;;;5090044;28;20187;-59
2022/12/18 19:29:02;;;;;;;13.23;6.80;;;22.50;26.80;;;;;;5086706;28;20090;-59
2022/12/18 19:31:28;;;;;;;15.65;7.20;;;22.30;27.50;;;;;;5087362;28;20461;-57
2022/12/18 19:33:55;;;;;;;17.70;8.02;;;22.20;27.60;;;;;;5086030;28;20194;-58
2022/12/18 19:36:24;;;;;;;21.00;7.60;;;22.00;27.90;;;;;;5088030;28;20087;-60
2022/12/18 19:38:53;;;;;;;19.48;7.93;;;21.70;27.70;;;;;;5087308;28;20079;-58
2022/12/18 19:41:20;;;;;;;15.27;7.80;;;21.80;27.80;;;;;;5087701;28;20171;-58
2022/12/18 19:43:47;;;;;;;14.98;8.10;;;21.80;28.00;;;;;;5088836;28;20129;-56
2022/12/18 19:46:17;;;;;;;23.88;8.50;;;21.80;27.80;;;;;;5088906;28;20074;-58
2022/12/18 19:48:44;;;;;;;18.20;8.07;;;21.70;28.20;;;;;;5088683;28;20075;-59
2022/12/18 19:51:15;;;;;;;36.55;8.88;;;21.80;28.30;;;;;;5088146;28;20063;-56
2022/12/18 19:53:41;;;;;;;17.13;8.38;;;21.70;27.60;;;;;;5086024;28;20067;-57
2022/12/18 19:56:10;;;;;;;20.40;8.25;;;21.60;28.20;;;;;;5089527;28;20060;-60
2022/12/18 19:58:37;;;;;;;15.20;7.35;;;21.60;27.40;;;;;;5088471;28;20083;-60
2022/12/18 20:01:04;;;;;;;16.35;7.70;;;21.10;44.10;;;;;;5087931;28;20074;-60
2022/12/18 20:03:30;;;;;;;17.58;8.05;;;21.10;28.10;;;;;;5092451;28;20147;-59
2022/12/18 20:06:09;;;;;;;16.58;7.57;;;21.20;27.70;;;;;;5087607;28;20075;-59
2022/12/18 20:08:36;;;;;;;21.13;8.95;;;20.80;28.60;;;;;;5089206;28;20075;-57
2022/12/18 20:11:02;;;;;;;33.10;8.65;;;20.80;27.90;;;;;;5089638;28;20067;-59
2022/12/18 20:13:28;;;;;;;22.58;9.23;;;20.70;28.00;;;;;;5090084;28;20090;-60
2022/12/18 20:15:55;;;;;;;74.00;40.10;;;20.70;27.60;;;;;;5088153;28;20070;-62
2022/12/18 20:18:21;;;;;;;29.55;15.52;;;21.20;28.30;;;;;;5088957;28;20072;-48
2022/12/18 20:20:48;;;;;;;37.60;22.90;;;21.30;29.00;;;;;;5092853;28;20097;-52
2022/12/18 20:23:14;;;;;;;20.38;12.18;;;21.80;28.80;;;;;;5087784;28;20076;-55
2022/12/18 20:25:40;;;;;;;14.57;8.02;;;22.20;28.20;;;;;;5089363;28;20154;-51
2022/12/18 20:28:07;;;;;;;31.20;13.02;;;21.90;27.70;;;;;;5088823;28;20111;-54
2022/12/18 20:30:33;;;;;;;25.35;10.52;;;21.70;28.50;;;;;;5088221;28;20087;-52
2022/12/18 20:32:59;;;;;;;25.48;9.32;;;21.70;28.50;;;;;;5088933;28;20258;-55
2022/12/18 20:35:27;;;;;;;19.52;9.52;;;21.90;27.90;;;;;;5088114;28;20082;-53
2022/12/18 20:37:54;;;;;;;18.00;8.65;;;21.90;27.60;;;;;;5088100;28;20071;-55
2022/12/18 20:40:21;;;;;;;23.02;10.82;;;21.80;28.00;;;;;;5091503;28;20072;-58
2022/12/18 20:42:48;;;;;;;35.67;15.45;;;21.70;27.30;;;;;;5089130;28;20154;-51
2022/12/18 20:45:14;;;;;;;20.35;10.80;;;21.50;27.80;;;;;;5088400;28;20095;-57
2022/12/18 20:47:41;;;;;;;21.55;11.13;;;21.40;27.70;;;;;;5087411;28;20152;-55
2022/12/18 20:50:07;;;;;;;20.02;8.20;;;21.50;27.80;;;;;;5089927;28;20067;-52
2022/12/18 20:52:34;;;;;;;26.40;8.30;;;21.70;39.80;;;;;;5088726;28;20042;-52
2022/12/18 20:55:00;;;;;;;20.80;7.88;;;21.40;27.60;;;;;;5088380;28;20059;-58
2022/12/18 20:57:26;;;;;;;13.52;8.30;;;21.10;27.60;;;;;;5088876;28;20559;-55
2022/12/18 20:59:53;;;;;;;20.15;7.78;;;21.70;38.90;;;;;;5088519;28;20079;-54
2022/12/18 21:02:19;;;;;;;22.67;7.75;;;21.30;28.70;;;;;;5084431;28;20080;-57
2022/12/18 21:04:46;;;;;;;13.98;7.13;;;21.60;28.50;;;;;;5088595;28;20103;-55
2022/12/18 21:07:12;;;;;;;64.18;9.52;;;21.80;27.90;;;;;;5086040;28;20087;-56
2022/12/18 21:09:38;;;;;;;17.42;7.03;;;21.30;28.00;;;;;;5088610;28;20097;-50
2022/12/18 21:15:03;;;;;;;13.60;6.55;;;21.90;28.80;;;;;;5088973;28;20087;-50
2022/12/18 21:17:29;;;;;;;15.43;7.80;;;22.10;28.10;;;;;;5087330;28;20078;-53
2022/12/18 21:19:56;;;;;;;17.85;7.97;;;22.10;27.00;;;;;;5089310;28;20080;-51
2022/12/18 21:22:23;;;;;;;19.65;8.48;;;22.00;27.20;;;;;;5087522;28;20124;-55
2022/12/18 21:24:50;;;;;;;18.40;8.20;;;21.90;27.40;;;;;;5086643;28;20082;-52
2022/12/18 21:27:16;;;;;;;26.70;7.55;;;21.80;27.00;;;;;;5088351;28;20579;-54
2022/12/18 21:29:43;;;;;;;12.40;5.65;;;21.30;27.40;;;;;;5087696;28;20482;-54
2022/12/18 21:35:07;;;;;;;13.48;5.10;;;21.30;28.60;;;;;;5088470;28;20078;-56
2022/12/18 21:37:34;;;;;;;19.10;6.38;;;21.30;28.40;;;;;;5086872;28;20080;-53
2022/12/18 21:40:00;;;;;;;11.30;6.10;;;21.10;28.60;;;;;;5088391;28;20072;-56
2022/12/18 21:45:12;;;;;;;16.58;7.75;;;21.00;28.60;;;;;;5087772;28;20459;-47
2022/12/18 21:47:38;;;;;;;13.80;5.53;;;21.00;28.70;;;;;;5088053;28;20092;-49
2022/12/18 21:50:05;;;;;;;17.77;6.75;;;21.00;28.70;;;;;;5088896;28;20431;-56
2022/12/18 21:52:32;;;;;;;22.05;6.68;;;20.90;29.00;;;;;;5089298;28;20059;-58
2022/12/18 21:54:59;;;;;;;15.38;5.90;;;21.10;29.60;;;;;;5092130;28;20493;-54
2022/12/18 21:57:25;;;;;;;10.30;6.05;;;21.10;29.20;;;;;;5086873;28;20074;-56
2022/12/18 21:59:52;;;;;;;14.00;6.07;;;21.30;29.70;;;;;;5087782;28;20145;-54
2022/12/18 22:02:20;;;;;;;20.85;12.38;;;21.20;29.10;;;;;;5086591;28;20063;-55
2022/12/18 22:04:47;;;;;;;16.98;6.68;;;21.10;29.20;;;;;;5088259;28;20609;-57
2022/12/18 22:07:15;;;;;;;22.90;10.20;;;21.10;29.30;;;;;;5088616;28;20098;-55
2022/12/18 22:09:42;;;;;;;12.30;6.18;;;21.10;29.10;;;;;;5093650;28;20073;-55
2022/12/18 22:12:10;;;;;;;20.50;14.70;;;21.10;29.60;;;;;;5086548;28;20078;-55
2022/12/18 22:14:37;;;;;;;40.75;23.38;;;21.00;30.00;;;;;;5089582;28;20551;-56
2022/12/18 22:17:03;;;;;;;19.15;6.50;;;20.80;29.80;;;;;;5091814;28;20554;-54
2022/12/18 22:19:30;;;;;;;45.03;24.98;;;20.70;30.00;;;;;;5091468;28;20068;-56
2022/12/18 22:21:56;;;;;;;15.48;5.65;;;20.50;29.80;;;;;;5090122;28;20458;-53
2022/12/18 22:24:25;;;;;;;18.70;10.43;;;20.50;30.20;;;;;;5089708;28;20075;-56
2022/12/18 22:26:57;;;;;;;16.75;7.88;;;20.60;30.10;;;;;;5087033;28;20124;-55
2022/12/18 22:32:15;;;;;;;16.25;6.15;;;20.30;30.40;;;;;;5091285;28;20091;-51
2022/12/18 22:34:41;;;;;;;15.70;6.68;;;20.10;30.70;;;;;;5090362;28;20080;-54
2022/12/18 22:37:10;;;;;;;22.98;7.72;;;20.20;30.70;;;;;;5090904;28;20501;-53
2022/12/18 22:39:37;;;;;;;26.67;7.55;;;20.30;29.50;;;;;;5090396;28;20075;-56
2022/12/18 22:42:03;;;;;;;25.83;9.13;;;20.40;30.00;;;;;;5091821;28;20071;-54
2022/12/18 22:44:30;;;;;;;28.73;8.95;;;20.50;28.40;;;;;;5090133;28;20127;-57
2022/12/18 22:46:56;;;;;;;28.13;8.55;;;20.60;27.60;;;;;;5091114;28;20172;-56
2022/12/18 22:49:24;;;;;;;22.77;8.00;;;20.60;27.70;;;;;;5091165;28;20532;-52
2022/12/18 22:51:51;;;;;;;12.75;6.35;;;20.60;28.90;;;;;;5092617;28;20095;-56
2022/12/18 22:54:18;;;;;;;18.85;6.47;;;20.50;29.50;;;;;;5089427;28;20471;-55
2022/12/18 22:56:45;;;;;;;11.52;5.05;;;20.30;29.90;;;;;;5090217;28;20150;-52
2022/12/18 22:59:20;;;;;;;10.10;5.68;;;20.30;30.00;;;;;;5090104;28;20101;-57
2022/12/18 23:01:48;;;;;;;15.88;5.90;;;20.20;30.00;;;;;;5090136;28;20492;-54
2022/12/18 23:04:15;;;;;;;9.20;5.25;;;20.20;30.20;;;;;;5090284;28;20080;-52
2022/12/18 23:06:44;;;;;;;17.58;6.88;;;20.20;30.60;;;;;;5091120;28;20096;-55
2022/12/18 23:09:16;;;;;;;22.27;8.68;;;20.20;30.20;;;;;;5093901;28;20078;-56
2022/12/18 23:11:43;;;;;;;18.77;6.28;;;20.00;30.40;;;;;;5089332;28;20468;-55
2022/12/18 23:14:10;;;;;;;19.08;6.00;;;20.10;31.00;;;;;;5089810;28;20096;-55
2022/12/18 23:16:36;;;;;;;13.55;5.93;;;20.00;29.70;;;;;;5090875;28;20099;-54
2022/12/18 23:19:04;;;;;;;24.10;10.35;;;19.90;29.80;;;;;;5090209;28;20442;-55
2022/12/18 23:21:31;;;;;;;39.28;18.45;;;19.80;29.80;;;;;;5090606;28;20091;-53
2022/12/18 23:23:57;;;;;;;17.52;5.85;;;19.80;30.00;;;;;;5088991;28;20076;-55
2022/12/18 23:26:25;;;;;;;15.18;5.68;;;19.80;30.20;;;;;;5087685;28;20115;-55
